createdAt,value
2023-05-26T00:01:54.058Z,16.90
2023-05-26T00:04:22.643Z,16.80
2023-05-26T00:06:54.493Z,16.50
2023-05-26T00:09:25.307Z,16.60
2023-05-26T00:11:54.040Z,16.40
2023-05-26T00:14:22.536Z,16.30
2023-05-26T00:16:50.966Z,16.10
2023-05-26T00:19:20.830Z,16.20
2023-05-26T00:21:49.384Z,16.20
2023-05-26T00:24:17.844Z,16.20
2023-05-26T00:26:47.842Z,16.10
2023-05-26T00:29:28.570Z,16.10
2023-05-26T00:31:59.049Z,16.20
2023-05-26T00:34:27.513Z,16.10
2023-05-26T00:36:55.998Z,16.20
2023-05-26T00:39:24.519Z,16.20
2023-05-26T00:41:54.613Z,16.20
2023-05-26T00:44:23.481Z,16.20
2023-05-26T00:46:52.013Z,16.30
2023-05-26T00:49:20.659Z,16.30
2023-05-26T00:51:49.526Z,16.40
2023-05-26T00:54:18.364Z,16.40
2023-05-26T00:56:46.895Z,16.30
2023-05-26T00:59:17.022Z,16.30
2023-05-26T01:01:46.134Z,16.30
2023-05-26T01:04:15.078Z,16.20
2023-05-26T01:06:46.087Z,16.20
2023-05-26T01:09:15.306Z,16.30
2023-05-26T01:11:49.078Z,16.30
2023-05-26T01:14:27.776Z,16.30
2023-05-26T01:17:02.772Z,16.20
2023-05-26T01:20:03.166Z,16.10
2023-05-26T01:22:52.356Z,16.20
2023-05-26T01:25:33.285Z,16.10
2023-05-26T01:28:08.234Z,16.00
2023-05-26T01:30:37.280Z,16.00
2023-05-26T01:33:06.056Z,15.90
2023-05-26T01:35:34.605Z,15.90
2023-05-26T01:38:04.097Z,15.90
2023-05-26T01:40:33.167Z,15.70
2023-05-26T01:43:05.641Z,15.80
2023-05-26T01:45:41.176Z,15.80
2023-05-26T01:48:11.621Z,15.90
2023-05-26T01:50:44.334Z,15.80
2023-05-26T01:53:14.619Z,15.80
2023-05-26T01:55:44.694Z,15.70
2023-05-26T01:58:13.799Z,15.60
2023-05-26T02:00:49.600Z,15.60
2023-05-26T02:03:18.785Z,15.50
2023-05-26T02:05:47.840Z,15.50
2023-05-26T02:08:16.589Z,15.50
2023-05-26T02:10:45.028Z,15.50
2023-05-26T02:13:13.491Z,15.40
2023-05-26T02:15:42.167Z,15.40
2023-05-26T02:18:13.301Z,15.20
2023-05-26T02:20:41.937Z,15.10
2023-05-26T02:23:10.606Z,15.20
2023-05-26T02:25:39.094Z,15.20
2023-05-26T02:28:07.628Z,15.10
2023-05-26T02:30:36.151Z,15.10
2023-05-26T02:33:04.824Z,15.20
2023-05-26T02:35:34.737Z,15.20
2023-05-26T02:38:03.236Z,15.20
2023-05-26T02:40:31.756Z,15.20
2023-05-26T02:43:00.251Z,15.20
2023-05-26T02:45:28.749Z,15.10
2023-05-26T02:47:57.266Z,15.10
2023-05-26T02:50:25.801Z,15.10
2023-05-26T02:52:55.726Z,15.20
2023-05-26T02:55:26.013Z,15.00
2023-05-26T02:57:56.171Z,15.10
2023-05-26T03:00:24.628Z,15.00
2023-05-26T03:02:53.131Z,15.00
2023-05-26T03:05:21.771Z,15.10
2023-05-26T03:07:50.263Z,15.10
2023-05-26T03:10:21.326Z,15.10
2023-05-26T03:12:49.987Z,15.10
2023-05-26T03:15:18.453Z,15.10
2023-05-26T03:17:47.048Z,15.20
2023-05-26T03:20:15.623Z,15.10
2023-05-26T03:22:52.707Z,15.10
2023-05-26T03:25:23.635Z,15.00
2023-05-26T03:27:52.160Z,14.90
2023-05-26T03:30:20.725Z,15.00
2023-05-26T03:32:49.215Z,15.10
2023-05-26T03:35:17.765Z,15.10
2023-05-26T03:37:46.257Z,15.10
2023-05-26T03:40:15.493Z,15.20
2023-05-26T03:42:45.363Z,15.30
2023-05-26T03:45:14.860Z,15.50
2023-05-26T03:47:43.652Z,15.70
2023-05-26T03:50:12.668Z,15.70
2023-05-26T03:52:41.813Z,15.90
2023-05-26T03:55:12.179Z,16.20
2023-05-26T03:57:40.821Z,16.40
2023-05-26T04:00:12.579Z,16.50
2023-05-26T04:02:41.203Z,16.50
2023-05-26T04:05:10.669Z,16.70
2023-05-26T04:07:39.190Z,16.70
2023-05-26T04:10:08.702Z,17.10
2023-05-26T04:12:37.250Z,17.30
2023-05-26T04:15:06.499Z,17.60
2023-05-26T04:17:36.460Z,17.70
2023-05-26T04:20:07.111Z,17.80
2023-05-26T04:22:35.697Z,17.90
2023-05-26T04:25:04.632Z,18.10
2023-05-26T04:27:33.104Z,18.30
2023-05-26T04:30:02.186Z,18.30
2023-05-26T04:32:30.840Z,18.80
2023-05-26T04:35:01.555Z,18.90
2023-05-26T04:37:33.726Z,19.00
2023-05-26T04:40:06.756Z,18.90
2023-05-26T04:42:36.018Z,18.90
2023-05-26T04:45:04.992Z,19.10
2023-05-26T04:47:36.302Z,19.30
2023-05-26T04:50:08.090Z,19.60
2023-05-26T04:52:36.752Z,19.80
2023-05-26T04:55:05.772Z,20.10
2023-05-26T04:57:34.312Z,20.00
2023-05-26T05:00:06.960Z,20.40
2023-05-26T05:02:35.644Z,20.80
2023-05-26T05:05:05.813Z,21.10
2023-05-26T05:07:34.758Z,21.30
2023-05-26T05:10:03.870Z,21.70
2023-05-26T05:12:32.631Z,22.20
2023-05-26T05:15:01.581Z,22.70
2023-05-26T05:17:30.133Z,23.10
2023-05-26T05:20:13.509Z,23.30
2023-05-26T05:22:44.826Z,23.90
2023-05-26T05:25:13.423Z,24.00
2023-05-26T05:27:41.959Z,24.10
2023-05-26T05:30:12.664Z,24.00
2023-05-26T05:32:41.503Z,24.60
2023-05-26T05:35:11.534Z,24.50
2023-05-26T05:37:40.367Z,24.60
2023-05-26T05:40:11.378Z,24.80
2023-05-26T05:42:39.837Z,25.00
2023-05-26T05:45:09.367Z,25.20
2023-05-26T05:47:38.122Z,25.10
2023-05-26T05:50:09.072Z,25.30
2023-05-26T05:52:37.949Z,25.70
2023-05-26T05:55:07.006Z,25.70
2023-05-26T05:57:37.002Z,25.50
2023-05-26T06:00:06.732Z,25.10
2023-05-26T06:02:35.403Z,25.10
2023-05-26T06:05:04.146Z,25.40
2023-05-26T06:07:32.655Z,25.40
2023-05-26T06:10:01.205Z,25.30
2023-05-26T06:12:29.751Z,25.50
2023-05-26T06:14:59.814Z,25.70
2023-05-26T06:17:28.340Z,25.00
2023-05-26T06:19:56.863Z,24.90
2023-05-26T06:22:25.365Z,24.90
2023-05-26T06:24:53.844Z,24.90
2023-05-26T06:27:22.364Z,25.20
2023-05-26T06:29:50.932Z,25.10
2023-05-26T06:32:21.226Z,24.60
2023-05-26T06:34:49.831Z,24.60
2023-05-26T06:37:18.280Z,24.70
2023-05-26T06:39:46.772Z,25.00
2023-05-26T06:42:15.323Z,25.20
2023-05-26T06:44:44.226Z,25.10
2023-05-26T06:47:13.058Z,25.50
2023-05-26T06:49:42.999Z,26.00
2023-05-26T06:52:11.473Z,26.30
2023-05-26T06:54:39.983Z,26.10
2023-05-26T06:57:08.415Z,26.20
2023-05-26T06:59:36.835Z,26.60
2023-05-26T07:02:05.753Z,26.40
2023-05-26T07:04:35.159Z,26.40
2023-05-26T07:07:05.777Z,26.60
2023-05-26T07:09:34.458Z,27.30
2023-05-26T07:12:03.325Z,27.40
2023-05-26T07:14:31.784Z,27.30
2023-05-26T07:17:00.270Z,27.30
2023-05-26T07:19:28.988Z,27.10
2023-05-26T07:21:57.664Z,27.80
2023-05-26T07:24:27.560Z,28.20
2023-05-26T07:26:56.396Z,28.50
2023-05-26T07:29:24.967Z,28.50
2023-05-26T07:31:53.549Z,28.50
2023-05-26T07:34:22.594Z,28.90
2023-05-26T07:36:51.299Z,29.00
2023-05-26T07:39:20.072Z,28.70
2023-05-26T07:41:51.772Z,28.70
2023-05-26T07:44:23.569Z,28.80
2023-05-26T07:46:52.404Z,29.20
2023-05-26T07:49:20.907Z,29.50
2023-05-26T07:51:49.360Z,29.40
2023-05-26T07:54:17.938Z,29.60
2023-05-26T07:56:46.450Z,29.70
2023-05-26T07:59:17.900Z,29.90
2023-05-26T08:01:46.934Z,30.10
2023-05-26T08:04:15.494Z,29.80
2023-05-26T08:06:44.033Z,29.90
2023-05-26T08:09:12.782Z,30.30
2023-05-26T08:11:41.518Z,30.20
2023-05-26T08:14:10.388Z,30.00
2023-05-26T08:16:40.551Z,29.90
2023-05-26T08:19:09.618Z,30.20
2023-05-26T08:21:38.387Z,30.40
2023-05-26T08:24:07.296Z,30.60
2023-05-26T08:26:35.924Z,30.40
2023-05-26T08:29:04.465Z,30.30
2023-05-26T08:31:33.039Z,30.40
2023-05-26T08:34:03.176Z,30.40
2023-05-26T08:36:31.597Z,30.30
2023-05-26T08:39:00.295Z,30.00
2023-05-26T08:41:36.768Z,30.00
2023-05-26T08:44:07.942Z,30.00
2023-05-26T08:46:38.892Z,30.10
2023-05-26T08:49:10.485Z,29.90
2023-05-26T08:51:46.184Z,29.60
2023-05-26T08:54:15.320Z,29.40
2023-05-26T08:56:45.221Z,29.80
2023-05-26T08:59:16.152Z,29.80
2023-05-26T09:01:44.786Z,29.90
2023-05-26T09:04:14.900Z,30.10
2023-05-26T09:06:59.027Z,30.00
2023-05-26T09:09:36.558Z,30.20
2023-05-26T09:12:10.812Z,29.60
2023-05-26T09:14:39.990Z,29.70
2023-05-26T09:17:08.788Z,29.60
2023-05-26T09:19:39.639Z,29.80
2023-05-26T09:22:09.341Z,30.00
2023-05-26T09:24:56.267Z,29.80
2023-05-26T09:27:25.366Z,29.50
2023-05-26T09:29:56.117Z,29.10
2023-05-26T09:32:28.000Z,29.10
2023-05-26T09:35:00.577Z,29.60
2023-05-26T09:37:30.545Z,29.10
2023-05-26T09:40:09.506Z,29.40
2023-05-26T09:42:39.764Z,29.50
2023-05-26T09:45:08.703Z,29.80
2023-05-26T09:47:37.552Z,30.10
2023-05-26T09:50:08.951Z,29.70
2023-05-26T09:52:38.432Z,29.60
2023-05-26T09:55:08.110Z,29.80
2023-05-26T09:57:39.490Z,29.80
2023-05-26T10:00:11.935Z,29.90
2023-05-26T10:02:42.331Z,30.10
2023-05-26T10:05:13.453Z,29.90
2023-05-26T10:07:44.393Z,30.00
2023-05-26T10:10:16.147Z,30.40
2023-05-26T10:12:45.720Z,30.60
2023-05-26T10:15:14.779Z,30.40
2023-05-26T10:17:43.632Z,30.40
2023-05-26T10:20:14.280Z,30.00
2023-05-26T10:22:49.060Z,29.90
2023-05-26T10:25:23.050Z,29.70
2023-05-26T10:28:01.914Z,29.80
2023-05-26T10:30:31.512Z,30.00
2023-05-26T10:33:10.788Z,30.00
2023-05-26T10:35:54.112Z,30.00
2023-05-26T10:38:28.502Z,29.90
2023-05-26T10:40:57.137Z,30.10
2023-05-26T10:43:27.187Z,29.80
2023-05-26T10:45:58.694Z,29.80
2023-05-26T10:48:28.195Z,29.90
2023-05-26T10:51:26.924Z,29.70
2023-05-26T10:53:57.672Z,29.60
2023-05-26T10:56:36.055Z,29.20
2023-05-26T10:59:05.728Z,29.00
2023-05-26T11:01:35.020Z,29.00
2023-05-26T11:04:11.320Z,28.80
2023-05-26T11:06:49.975Z,28.80
2023-05-26T11:09:22.214Z,28.90
2023-05-26T11:11:56.059Z,28.60
2023-05-26T11:14:27.007Z,29.00
2023-05-26T11:16:59.280Z,28.80
2023-05-26T11:19:33.334Z,28.50
2023-05-26T11:22:05.694Z,28.50
2023-05-26T11:24:34.633Z,28.60
2023-05-26T11:27:03.950Z,28.60
2023-05-26T11:29:32.656Z,28.40
2023-05-26T11:32:01.349Z,28.30
2023-05-26T11:34:29.960Z,28.20
2023-05-26T11:36:59.827Z,28.20
2023-05-26T11:39:36.194Z,28.10
2023-05-26T11:42:12.453Z,28.00
2023-05-26T11:44:41.350Z,28.00
2023-05-26T11:47:13.312Z,28.00
2023-05-26T11:49:48.015Z,27.80
2023-05-26T11:52:19.064Z,27.90
2023-05-26T11:54:48.978Z,27.80
2023-05-26T11:57:32.367Z,27.60
2023-05-26T12:00:01.102Z,27.50
2023-05-26T12:02:29.776Z,27.40
2023-05-26T12:04:58.443Z,27.30
2023-05-26T12:07:31.544Z,27.30
2023-05-26T12:10:10.948Z,27.30
2023-05-26T12:12:49.353Z,27.20
2023-05-26T12:15:21.502Z,26.80
2023-05-26T12:17:50.139Z,27.10
2023-05-26T12:20:37.872Z,27.10
2023-05-26T12:23:12.838Z,26.90
2023-05-26T12:25:46.012Z,26.90
2023-05-26T12:28:14.511Z,26.90
2023-05-26T12:33:14.791Z,27.10
2023-05-26T12:35:43.309Z,27.00
2023-05-26T12:38:15.017Z,27.00
2023-05-26T12:40:45.105Z,26.90
2023-05-26T12:43:13.481Z,26.50
2023-05-26T12:45:42.328Z,26.60
2023-05-26T12:48:10.918Z,26.70
2023-05-26T12:50:39.515Z,26.70
2023-05-26T12:53:07.970Z,26.80
2023-05-26T12:55:36.429Z,26.80
2023-05-26T12:58:06.675Z,26.80
2023-05-26T13:00:35.075Z,26.50
2023-05-26T13:03:03.794Z,26.50
2023-05-26T13:05:32.453Z,26.40
2023-05-26T13:08:00.941Z,26.40
2023-05-26T13:10:29.443Z,26.20
2023-05-26T13:12:58.731Z,26.20
2023-05-26T13:15:28.669Z,26.10
2023-05-26T13:17:58.281Z,26.20
2023-05-26T13:20:28.526Z,26.20
2023-05-26T13:22:57.099Z,26.20
2023-05-26T13:25:25.515Z,26.10
2023-05-26T13:27:54.043Z,26.10
2023-05-26T13:30:22.859Z,26.10
2023-05-26T13:32:52.948Z,26.00
2023-05-26T13:35:21.543Z,26.30
2023-05-26T13:37:50.342Z,26.20
2023-05-26T13:40:19.412Z,26.00
2023-05-26T13:42:48.984Z,25.70
2023-05-26T13:45:18.238Z,25.60
2023-05-26T13:47:47.237Z,25.70
2023-05-26T13:50:21.551Z,25.80
2023-05-26T13:52:51.008Z,25.90
2023-05-26T13:55:19.658Z,25.80
2023-05-26T13:57:48.188Z,25.90
2023-05-26T14:00:17.023Z,25.90
2023-05-26T14:02:45.810Z,25.90
2023-05-26T14:05:15.972Z,26.00
2023-05-26T14:07:45.895Z,25.80
2023-05-26T14:10:14.529Z,25.90
2023-05-26T14:12:43.430Z,25.90
2023-05-26T14:15:12.321Z,25.90
2023-05-26T14:17:41.009Z,25.80
2023-05-26T14:21:37.222Z,25.80
2023-05-26T14:23:00.198Z,25.80
2023-05-26T14:25:29.280Z,25.60
2023-05-26T14:27:57.846Z,25.40
2023-05-26T14:30:26.443Z,25.20
2023-05-26T14:32:55.161Z,25.10
2023-05-26T14:35:23.767Z,24.90
2023-05-26T14:37:52.282Z,25.00
2023-05-26T14:40:22.241Z,25.20
2023-05-26T14:42:50.675Z,25.10
2023-05-26T14:45:19.167Z,25.10
2023-05-26T14:47:47.823Z,25.00
2023-05-26T14:50:16.340Z,25.00
2023-05-26T14:52:44.736Z,25.00
2023-05-26T14:55:13.222Z,25.10
2023-05-26T14:57:43.504Z,25.20
2023-05-26T15:00:13.496Z,25.30
2023-05-26T15:02:42.372Z,25.00
2023-05-26T15:05:11.473Z,24.90
2023-05-26T15:07:39.983Z,24.80
2023-05-26T15:10:08.782Z,24.70
2023-05-26T15:12:38.303Z,24.60
2023-05-26T15:15:09.739Z,24.60
2023-05-26T15:17:38.391Z,24.70
2023-05-26T15:20:08.764Z,24.60
2023-05-26T15:22:37.596Z,24.70
2023-05-26T15:25:06.866Z,24.60
2023-05-26T15:27:35.348Z,24.50
2023-05-26T15:30:04.252Z,24.50
2023-05-26T15:32:34.209Z,24.60
2023-05-26T15:35:03.098Z,24.60
2023-05-26T15:37:39.315Z,24.60
2023-05-26T15:40:12.316Z,24.60
2023-05-26T15:42:40.733Z,24.70
2023-05-26T15:45:10.348Z,24.80
2023-05-26T15:47:40.233Z,24.80
2023-05-26T15:50:10.403Z,24.60
2023-05-26T15:52:38.837Z,24.60
2023-05-26T15:55:08.393Z,24.50
2023-05-26T15:57:36.898Z,24.40
2023-05-26T16:00:06.623Z,24.40
2023-05-26T16:02:35.238Z,24.30
2023-05-26T16:05:05.364Z,24.50
2023-05-26T16:07:33.896Z,24.60
2023-05-26T16:10:02.328Z,24.40
2023-05-26T16:12:30.799Z,24.30
2023-05-26T16:14:59.240Z,24.30
2023-05-26T16:17:27.736Z,24.30
2023-05-26T16:19:56.329Z,24.20
2023-05-26T16:22:26.368Z,24.20
2023-05-26T16:24:54.792Z,24.10
2023-05-26T16:27:23.305Z,24.00
2023-05-26T16:29:51.785Z,23.90
2023-05-26T16:32:20.299Z,23.90
2023-05-26T16:34:48.796Z,24.00
2023-05-26T16:37:17.276Z,23.80
2023-05-26T16:39:47.233Z,23.70
2023-05-26T16:42:15.752Z,23.70
2023-05-26T16:44:44.234Z,23.60
2023-05-26T16:47:12.881Z,23.60
2023-05-26T16:49:41.429Z,23.60
2023-05-26T16:52:09.865Z,23.50
2023-05-26T16:54:38.313Z,23.70
2023-05-26T16:57:08.952Z,23.70
2023-05-26T16:59:37.576Z,23.70
2023-05-26T17:02:06.474Z,23.60
2023-05-26T17:04:34.933Z,23.60
2023-05-26T17:07:03.431Z,23.50
2023-05-26T17:09:32.492Z,23.60
2023-05-26T17:12:02.956Z,23.60
2023-05-26T17:14:33.880Z,23.60
2023-05-26T17:17:03.155Z,23.50
2023-05-26T17:19:31.968Z,23.50
2023-05-26T17:22:01.392Z,23.50
2023-05-26T17:24:30.001Z,23.40
2023-05-26T17:26:58.526Z,23.30
2023-05-26T17:29:27.420Z,23.20
2023-05-26T17:31:57.456Z,23.20
2023-05-26T17:34:26.580Z,23.20
2023-05-26T17:36:55.184Z,23.20
2023-05-26T17:39:24.222Z,23.10
2023-05-26T17:41:52.962Z,23.10
2023-05-26T17:44:21.686Z,23.00
2023-05-26T17:46:50.221Z,23.00
2023-05-26T17:49:20.333Z,22.80
2023-05-26T17:51:48.849Z,22.90
2023-05-26T17:54:17.347Z,22.80
2023-05-26T17:56:45.852Z,22.80
2023-05-26T17:59:14.329Z,22.80
2023-05-26T18:01:42.848Z,22.90
2023-05-26T18:04:11.479Z,22.90
2023-05-26T18:06:41.644Z,22.80
2023-05-26T18:09:10.553Z,22.80
2023-05-26T18:11:39.045Z,22.70
2023-05-26T18:14:07.557Z,22.60
2023-05-26T18:16:36.338Z,22.60
2023-05-26T18:19:05.053Z,22.60
2023-05-26T18:21:33.652Z,22.50
2023-05-26T18:24:03.519Z,22.40
2023-05-26T18:26:32.413Z,22.40
2023-05-26T18:29:01.690Z,22.30
2023-05-26T18:31:30.859Z,22.30
2023-05-26T18:34:06.595Z,22.10
2023-05-26T18:36:41.334Z,22.20
2023-05-26T18:39:11.584Z,21.80
2023-05-26T18:41:40.132Z,21.80
2023-05-26T18:44:08.697Z,22.00
2023-05-26T18:46:37.257Z,21.90
2023-05-26T18:49:05.971Z,21.90
2023-05-26T18:51:34.670Z,21.90
2023-05-26T18:54:03.198Z,21.80
2023-05-26T18:56:33.557Z,21.80
2023-05-26T18:59:02.205Z,21.70
2023-05-26T19:01:30.927Z,21.60
2023-05-26T19:04:01.469Z,21.60
2023-05-26T19:06:30.434Z,21.60
2023-05-26T19:08:58.922Z,21.60
2023-05-26T19:11:28.522Z,21.60
2023-05-26T19:13:58.441Z,21.50
2023-05-26T19:16:27.060Z,21.50
2023-05-26T19:18:55.710Z,21.30
2023-05-26T19:21:24.263Z,21.30
2023-05-26T19:23:52.748Z,21.30
2023-05-26T19:26:21.240Z,21.10
2023-05-26T19:28:54.810Z,21.00
2023-05-26T19:31:34.851Z,21.00
2023-05-26T19:34:03.414Z,20.90
2023-05-26T19:36:32.256Z,20.90
2023-05-26T19:39:00.994Z,20.90
2023-05-26T19:41:30.174Z,20.80
2023-05-26T19:43:58.919Z,20.70
2023-05-26T19:46:27.561Z,20.60
2023-05-26T19:48:57.822Z,20.70
2023-05-26T19:51:26.422Z,20.60
2023-05-26T19:53:54.949Z,20.60
2023-05-26T19:56:23.489Z,20.60
2023-05-26T19:58:52.033Z,20.60
2023-05-26T20:01:21.452Z,20.50
2023-05-26T20:03:51.319Z,20.50
2023-05-26T20:06:21.304Z,20.40
2023-05-26T20:08:49.790Z,20.30
2023-05-26T20:11:20.265Z,20.30
2023-05-26T20:13:49.171Z,20.30
2023-05-26T20:16:17.797Z,20.30
2023-05-26T20:18:46.926Z,20.30
2023-05-26T20:21:15.417Z,20.30
2023-05-26T20:23:45.327Z,20.10
2023-05-26T20:26:13.899Z,20.10
2023-05-26T20:28:42.382Z,20.10
2023-05-26T20:31:10.939Z,20.10
2023-05-26T20:33:39.515Z,20.10
2023-05-26T20:36:08.617Z,20.10
2023-05-26T20:38:38.159Z,20.10
2023-05-26T20:41:09.128Z,20.00
2023-05-26T20:43:37.636Z,20.00
2023-05-26T20:46:06.586Z,20.00
2023-05-26T20:48:35.410Z,20.00
2023-05-26T20:51:04.096Z,19.90
2023-05-26T20:53:32.699Z,19.90
2023-05-26T20:56:01.292Z,19.90
2023-05-26T20:58:31.467Z,19.80
2023-05-26T21:00:59.964Z,19.80
2023-05-26T21:03:28.691Z,19.70
2023-05-26T21:05:57.274Z,19.70
2023-05-26T21:08:26.482Z,19.60
2023-05-26T21:10:54.974Z,19.70
2023-05-26T21:13:23.528Z,19.60
2023-05-26T21:15:53.616Z,19.50
2023-05-26T21:18:22.148Z,19.70
2023-05-26T21:20:51.375Z,19.60
2023-05-26T21:23:19.908Z,19.60
2023-05-26T21:25:48.772Z,19.60
2023-05-26T21:28:17.460Z,19.60
2023-05-26T21:30:46.103Z,19.50
2023-05-26T21:33:16.091Z,19.40
2023-05-26T21:35:44.785Z,19.40
2023-05-26T21:38:13.301Z,19.30
2023-05-26T21:40:41.858Z,19.30
2023-05-26T21:43:10.351Z,19.20
2023-05-26T21:45:38.854Z,19.00
2023-05-26T21:48:07.383Z,18.90
2023-05-26T21:50:37.390Z,18.90
2023-05-26T21:53:05.879Z,18.90
2023-05-26T21:55:34.506Z,18.80
2023-05-26T21:58:03.073Z,18.80
2023-05-26T22:00:31.692Z,18.80
2023-05-26T22:03:00.225Z,18.90
2023-05-26T22:05:28.935Z,18.80
2023-05-26T22:07:58.849Z,18.70
2023-05-26T22:10:28.200Z,18.70
2023-05-26T22:12:56.748Z,18.70
2023-05-26T22:15:25.498Z,18.70
2023-05-26T22:17:54.292Z,18.70
2023-05-26T22:20:22.846Z,18.70
2023-05-26T22:22:51.379Z,18.50
2023-05-26T22:25:21.755Z,18.60
2023-05-26T22:27:50.211Z,18.60
2023-05-26T22:30:18.754Z,18.50
2023-05-26T22:32:47.416Z,18.50
2023-05-26T22:35:16.356Z,18.30
2023-05-26T22:37:44.913Z,18.20
2023-05-26T22:40:13.720Z,18.10
2023-05-26T22:42:43.555Z,18.10
2023-05-26T22:45:12.703Z,18.00
2023-05-26T22:47:41.494Z,18.00
2023-05-26T22:50:10.746Z,17.90
2023-05-26T22:52:40.553Z,17.80
2023-05-26T22:55:09.897Z,17.70
2023-05-26T22:57:38.345Z,17.60
2023-05-26T23:00:09.649Z,17.60
2023-05-26T23:02:38.313Z,17.60
2023-05-26T23:05:08.059Z,17.70
2023-05-26T23:07:36.583Z,17.80
2023-05-26T23:10:07.482Z,17.80
2023-05-26T23:12:35.982Z,17.70
2023-05-26T23:15:05.243Z,17.80
2023-05-26T23:17:35.288Z,17.60
2023-05-26T23:20:03.934Z,17.80
2023-05-26T23:22:32.492Z,17.60
2023-05-26T23:25:00.939Z,17.60
2023-05-26T23:27:29.418Z,17.50
2023-05-26T23:29:57.855Z,17.60
2023-05-26T23:32:26.711Z,17.60
2023-05-26T23:34:56.593Z,17.50
2023-05-26T23:37:25.118Z,17.40
2023-05-26T23:39:53.537Z,17.40
2023-05-26T23:42:22.087Z,17.30
2023-05-26T23:44:51.616Z,17.30
2023-05-26T23:47:20.159Z,17.20
2023-05-26T23:49:50.979Z,17.20
2023-05-26T23:52:20.858Z,17.20
2023-05-26T23:54:49.309Z,17.20
2023-05-26T23:57:17.832Z,17.10
2023-05-26T23:59:46.361Z,17.20
